EDT,Max TemperatureF,Mean TemperatureF,Min TemperatureF,Max Dew PointF,MeanDew PointF,Min DewpointF,Max Humidity, Mean Humidity, Min Humidity, Max Sea Level PressureIn, Mean Sea Level PressureIn, Min Sea Level PressureIn, Max VisibilityMiles, Mean VisibilityMiles, Min VisibilityMiles, Max Wind SpeedMPH, Mean Wind SpeedMPH, Max Gust SpeedMPH,PrecipitationIn, CloudCover, Events, WindDirDegrees
2011-10-1,50,44,37,41,37,34,93,74,58,30.31,30.24,30.14,10,10,10,16,8,22,0.00,2,,11
2011-10-2,59,44,30,46,37,30,100,81,48,30.28,30.24,30.15,10,8,1,8,1,,0.69,0,,300
2011-10-3,68,50,33,50,41,34,100,81,46,30.23,30.19,30.15,10,9,2,12,2,18,0.00,0,,1
2011-10-4,68,52,37,50,44,36,100,80,49,30.30,30.26,30.22,10,9,1,7,1,,0.00,0,,245
2011-10-5,75,56,37,55,45,37,100,79,41,30.28,30.25,30.22,10,7,0,8,1,,0.00,0,Fog,254
2011-10-6,75,62,50,57,51,46,94,76,47,30.30,30.26,30.24,10,10,10,9,4,,0.00,0,,128
2011-10-7,78,64,50,57,52,46,94,70,36,30.33,30.28,30.24,10,10,10,12,4,17,0.00,0,,149
2011-10-8,77,65,53,59,55,50,94,64,50,30.33,30.29,30.22,10,10,10,13,8,18,0.00,0,,172
2011-10-9,75,64,53,57,54,50,94,68,47,30.38,30.33,30.28,10,10,10,10,3,,0.00,0,,215
2011-10-10,77,62,46,55,50,46,100,73,34,30.29,30.21,30.10,10,8,0,12,3,22,0.00,0,Fog,170
2011-10-11,75,64,53,59,54,52,94,71,50,30.09,30.04,29.96,10,10,10,9,4,,0.00,1,,168
2011-10-12,77,62,46,55,50,45,94,71,36,29.95,29.87,29.76,10,10,10,10,2,,0.00,1,,128
2011-10-13,68,59,50,59,53,48,100,88,68,29.74,29.58,29.43,10,7,2,9,6,,0.10,5,Rain,122
2011-10-14,55,52,50,54,48,43,100,86,71,29.47,29.39,29.33,10,9,2,20,12,33,0.22,8,Rain,297
2011-10-15,57,52,46,45,39,34,93,66,47,29.72,29.58,29.49,10,10,7,21,16,36,0.09,5,Rain,298
2011-10-16,57,54,50,46,42,36,82,64,51,29.77,29.72,29.65,10,10,10,17,9,23,0.00,3,Rain,268
2011-10-17,55,52,50,45,36,30,72,56,47,29.69,29.68,29.66,10,10,10,22,14,32,0.00,0,,273
2011-10-18,51,44,37,43,39,36,93,78,58,29.87,29.80,29.73,10,10,10,12,4,16,0.00,6,,356
2011-10-19,46,42,37,43,38,34,93,85,76,29.90,29.81,29.71,10,10,10,15,6,23,0.08,6,Rain,33
2011-10-20,44,43,42,41,40,37,93,91,76,29.57,29.47,29.43,10,8,4,28,17,44,0.40,8,Rain,5
2011-10-21,46,42,35,39,36,34,93,75,66,30.06,29.95,29.77,10,10,10,14,8,23,0.01,8,,323
2011-10-22,53,42,30,46,39,30,100,87,71,30.04,30.03,30.01,10,7,0,13,3,16,0.00,0,Fog,225
2011-10-23,53,42,30,48,38,30,100,86,62,30.01,29.94,29.83,10,6,0,12,2,18,0.04,3,Fog-Rain,226
2011-10-24,53,45,37,48,43,36,100,83,67,30.07,29.94,29.76,10,10,2,15,7,20,0.00,0,,275
2011-10-25,50,44,37,46,42,36,93,91,82,30.10,30.01,29.83,10,10,7,16,4,21,0.08,7,Rain,91
2011-10-26,50,46,41,41,40,37,93,85,71,29.94,29.89,29.84,10,10,4,13,8,20,0.00,8,,33
2011-10-27,50,42,33,39,36,32,100,84,62,30.09,29.99,29.95,10,10,4,14,2,21,0.03,4,Rain,338
2011-10-28,51,38,26,41,33,25,100,85,54,30.17,30.13,30.05,10,8,2,10,2,,0.07,4,Snow,171
2011-10-29,50,41,32,43,37,32,100,85,62,30.08,30.02,29.97,10,7,0,9,5,9,0.12,4,Fog-Rain,231
2011-10-30,50,39,28,37,32,28,100,81,47,30.12,30.07,29.95,10,7,0,15,4,24,0.00,5,Fog-Rain,135
2011-10-31,50,44,39,46,43,37,100,85,71,30.09,29.99,29.92,10,8,0,14,7,20,0.11,7,Fog-Rain,235